createdAt,value
2023-05-17T06:46:56.731Z,16.13
2023-05-17T06:49:59.658Z,16.13
2023-05-17T06:53:02.617Z,16.18
2023-05-17T06:56:05.667Z,16.31
2023-05-17T06:59:08.293Z,16.49
2023-05-17T07:02:10.976Z,16.43
2023-05-17T07:05:13.817Z,16.46
2023-05-17T07:08:16.533Z,16.45
2023-05-17T07:11:19.246Z,16.43
2023-05-17T07:14:21.689Z,16.27
2023-05-17T07:17:24.365Z,16.23
2023-05-17T07:20:27.027Z,16.08
2023-05-17T07:23:29.665Z,16.10
2023-05-17T07:26:32.561Z,16.29
2023-05-17T07:29:36.799Z,16.45
2023-05-17T07:32:39.315Z,16.44
2023-05-17T07:35:42.980Z,16.42
2023-05-17T07:38:45.400Z,16.57
2023-05-17T07:41:48.019Z,16.68
2023-05-17T07:44:50.573Z,16.57
2023-05-17T07:47:53.396Z,16.52
2023-05-17T07:50:56.308Z,16.73
2023-05-17T07:53:58.932Z,16.53
2023-05-17T07:57:01.468Z,16.54
2023-05-17T08:00:04.478Z,16.70
2023-05-17T08:03:15.798Z,16.79
2023-05-17T08:06:19.917Z,16.73
2023-05-17T08:09:22.459Z,16.86
2023-05-17T08:12:25.106Z,16.84
2023-05-17T08:15:27.843Z,16.91
2023-05-17T08:18:30.890Z,16.99
2023-05-17T08:21:33.508Z,16.87
2023-05-17T08:24:36.273Z,17.00
2023-05-17T08:27:38.959Z,16.95
2023-05-17T08:30:41.827Z,17.18
2023-05-17T08:33:44.665Z,17.37
2023-05-17T08:36:47.647Z,17.29
2023-05-17T08:39:51.581Z,17.01
2023-05-17T08:42:54.556Z,17.05
2023-05-17T08:45:58.206Z,17.11
2023-05-17T08:49:04.232Z,17.51
2023-05-17T08:52:09.929Z,17.37
2023-05-17T08:55:16.322Z,17.45
2023-05-17T08:58:26.275Z,17.59
2023-05-17T09:01:33.007Z,17.82
2023-05-17T09:04:36.343Z,17.53
2023-05-17T09:07:38.914Z,17.55
2023-05-17T09:10:42.402Z,17.53
2023-05-17T09:13:45.075Z,17.44
2023-05-17T09:16:47.713Z,17.60
2023-05-17T09:19:52.124Z,17.77
2023-05-17T09:22:55.736Z,17.70
2023-05-17T09:26:05.161Z,18.06
2023-05-17T09:29:15.835Z,18.04
2023-05-17T09:32:22.216Z,18.06
2023-05-17T09:35:34.192Z,18.14
2023-05-17T09:38:36.734Z,18.09
2023-05-17T09:41:48.813Z,17.90
2023-05-17T09:45:00.136Z,17.95
2023-05-17T09:48:14.255Z,18.21
2023-05-17T09:51:16.884Z,18.28
2023-05-17T09:54:19.477Z,18.32
2023-05-17T09:57:23.187Z,18.29
2023-05-17T10:00:26.384Z,18.38
2023-05-17T10:03:33.403Z,18.46
2023-05-17T10:09:48.837Z,18.46
2023-05-17T10:12:52.413Z,18.39
2023-05-17T10:15:55.682Z,18.17
2023-05-17T10:18:58.375Z,18.14
2023-05-17T10:22:11.505Z,18.04
2023-05-17T10:25:24.128Z,18.06
2023-05-17T10:28:28.557Z,17.99
2023-05-17T10:31:33.419Z,17.94
2023-05-17T10:34:37.963Z,17.94
2023-05-17T10:37:41.498Z,18.18
2023-05-17T10:40:46.618Z,18.11
2023-05-17T10:43:50.252Z,18.20
2023-05-17T10:46:55.294Z,18.26
2023-05-17T10:49:58.333Z,18.30
2023-05-17T10:53:01.174Z,18.30
2023-05-17T10:56:03.970Z,18.13
2023-05-17T10:59:32.116Z,18.21
2023-05-17T11:02:39.808Z,18.16
2023-05-17T11:05:55.880Z,18.08
2023-05-17T11:09:17.723Z,18.21
2023-05-17T11:12:43.214Z,18.18
2023-05-17T11:16:03.914Z,17.90
2023-05-17T11:19:09.163Z,17.74
2023-05-17T11:22:12.435Z,18.01
2023-05-17T11:25:15.251Z,18.07
2023-05-17T11:28:22.404Z,18.37
2023-05-17T11:31:35.678Z,18.60
2023-05-17T11:34:38.728Z,18.81
2023-05-17T11:37:44.109Z,19.12
2023-05-17T11:40:48.326Z,19.15
2023-05-17T11:43:51.911Z,18.79
2023-05-17T11:47:05.941Z,18.54
2023-05-17T11:50:09.550Z,18.68
2023-05-17T11:53:12.807Z,18.70
2023-05-17T11:56:16.288Z,18.91
2023-05-17T11:59:20.193Z,18.94
2023-05-17T12:02:32.996Z,19.07
2023-05-17T12:05:36.425Z,19.14
2023-05-17T12:08:43.337Z,19.32
2023-05-17T12:11:46.380Z,19.35
2023-05-17T12:14:50.543Z,19.59
2023-05-17T12:17:55.163Z,19.77
2023-05-17T12:20:59.186Z,19.66
2023-05-17T12:24:01.758Z,19.21
2023-05-17T12:27:04.545Z,19.69
2023-05-17T12:30:17.247Z,19.70
2023-05-17T12:33:20.538Z,19.76
2023-05-17T12:36:23.665Z,19.55
2023-05-17T12:39:26.595Z,19.94
2023-05-17T12:42:29.195Z,20.39
2023-05-17T12:45:32.076Z,20.08
2023-05-17T12:48:39.166Z,20.49
2023-05-17T12:51:43.716Z,20.31
2023-05-17T12:54:46.986Z,20.83
2023-05-17T12:57:51.829Z,20.94
2023-05-17T13:01:02.333Z,20.55
2023-05-17T13:04:05.305Z,20.73
2023-05-17T13:07:08.167Z,20.99
2023-05-17T13:10:28.020Z,20.92
2023-05-17T13:13:33.552Z,21.32
2023-05-17T13:16:39.780Z,22.12
2023-05-17T13:19:42.638Z,21.59
2023-05-17T13:22:49.135Z,22.57
2023-05-17T13:25:51.654Z,23.22
2023-05-17T13:28:54.495Z,23.63
2023-05-17T13:31:57.096Z,22.99
2023-05-17T13:35:02.040Z,22.03
2023-05-17T13:38:04.493Z,21.65
2023-05-17T13:41:09.332Z,21.90
2023-05-17T13:44:11.923Z,22.30
2023-05-17T13:47:14.891Z,21.94
2023-05-17T13:50:17.541Z,22.15
2023-05-17T13:53:20.157Z,22.05
2023-05-17T13:56:22.898Z,21.79
2023-05-17T13:59:26.290Z,21.62
2023-05-17T14:02:28.797Z,21.52
2023-05-17T14:05:33.406Z,21.20
2023-05-17T14:08:36.189Z,21.24
2023-05-17T14:11:39.708Z,21.01
2023-05-17T14:14:42.208Z,20.75
2023-05-17T14:17:44.980Z,20.77
2023-05-17T14:20:47.640Z,20.82
2023-05-17T14:23:50.389Z,20.55
2023-05-17T14:26:52.875Z,20.38
2023-05-17T14:29:55.877Z,20.52
2023-05-17T14:32:59.309Z,20.50
2023-05-17T14:36:02.171Z,20.49
2023-05-17T14:39:05.472Z,20.40
2023-05-17T14:42:08.092Z,20.32
2023-05-17T14:45:10.678Z,20.25
2023-05-17T14:48:13.569Z,20.09
2023-05-17T14:51:16.219Z,19.91
2023-05-17T14:54:18.978Z,19.79
2023-05-17T14:57:21.652Z,19.60
2023-05-17T15:00:24.781Z,19.52
2023-05-17T15:03:27.628Z,19.33
2023-05-17T15:06:31.382Z,18.71
2023-05-17T15:09:42.199Z,17.96
2023-05-17T15:12:44.906Z,17.43
2023-05-17T15:15:47.417Z,17.20
2023-05-17T15:18:50.076Z,17.21
2023-05-17T15:21:53.083Z,17.19
2023-05-17T15:24:57.765Z,16.92
2023-05-17T15:28:00.260Z,16.80
2023-05-17T15:31:06.432Z,16.75
2023-05-17T15:34:09.008Z,16.71
2023-05-17T15:37:11.728Z,16.60
2023-05-17T15:40:15.091Z,16.78
2023-05-17T15:43:17.711Z,16.69
2023-05-17T15:46:20.875Z,16.53
2023-05-17T15:49:23.660Z,16.31
2023-05-17T15:52:26.208Z,16.23
2023-05-17T15:55:29.066Z,16.18
2023-05-17T15:58:33.203Z,16.08
2023-05-17T16:01:36.273Z,16.11
2023-05-17T16:04:38.919Z,16.06
2023-05-17T16:07:41.609Z,16.13
2023-05-17T16:10:44.333Z,16.05
2023-05-17T16:13:47.065Z,16.04
2023-05-17T16:16:49.571Z,16.04
2023-05-17T16:19:52.264Z,16.01
2023-05-17T16:22:54.866Z,16.07
2023-05-17T16:25:58.032Z,15.89
2023-05-17T16:29:01.002Z,15.84
2023-05-17T16:32:03.835Z,15.79
2023-05-17T16:35:06.606Z,15.70
2023-05-17T16:38:09.278Z,15.61
2023-05-17T16:41:12.349Z,15.67
2023-05-17T16:44:14.775Z,15.53
2023-05-17T16:47:17.737Z,15.50
2023-05-17T16:50:22.949Z,15.49
2023-05-17T16:53:28.179Z,15.35
2023-05-17T16:56:31.392Z,15.28
2023-05-17T16:59:34.124Z,15.20
2023-05-17T17:02:36.811Z,15.13
2023-05-17T17:05:39.707Z,15.01
2023-05-17T17:08:42.154Z,15.00
2023-05-17T17:11:47.795Z,14.92
2023-05-17T17:14:50.758Z,14.89
2023-05-17T17:17:53.289Z,14.82
2023-05-17T17:20:56.002Z,14.77
2023-05-17T17:23:59.335Z,14.66
2023-05-17T17:27:02.084Z,14.65
2023-05-17T17:30:05.505Z,14.55
2023-05-17T17:33:10.706Z,14.52
2023-05-17T17:36:13.194Z,14.47
2023-05-17T17:39:17.256Z,14.39
2023-05-17T17:42:19.807Z,14.36
2023-05-17T17:45:22.416Z,14.21
2023-05-17T17:48:25.712Z,14.09
2023-05-17T17:51:28.265Z,14.07
2023-05-17T17:54:31.059Z,13.98
2023-05-17T17:57:33.892Z,13.94
2023-05-17T18:00:36.592Z,13.82
2023-05-17T18:03:39.385Z,13.76
2023-05-17T18:06:43.752Z,13.76
2023-05-17T18:09:46.372Z,13.71
2023-05-17T18:12:50.896Z,13.64
2023-05-17T18:15:54.329Z,13.56
2023-05-17T18:18:56.948Z,13.51
2023-05-17T18:21:59.427Z,13.49
2023-05-17T18:25:02.126Z,13.45
2023-05-17T18:28:06.314Z,13.44
2023-05-17T18:31:10.097Z,13.40
2023-05-17T18:34:12.716Z,13.41
2023-05-17T18:37:15.270Z,13.33
2023-05-17T18:40:18.291Z,13.31
2023-05-17T18:43:21.215Z,13.26
2023-05-17T18:46:23.950Z,13.26
2023-05-17T18:49:27.304Z,13.19
2023-05-17T18:52:30.096Z,13.23
2023-05-17T18:55:32.977Z,13.26
2023-05-17T18:58:35.653Z,13.21
2023-05-17T19:01:38.391Z,13.19
2023-05-17T19:04:41.591Z,13.16
2023-05-17T19:07:44.473Z,13.15
2023-05-17T19:10:47.316Z,13.12
2023-05-17T19:13:50.575Z,13.07
2023-05-17T19:16:57.073Z,13.03
2023-05-17T19:19:59.880Z,13.03
2023-05-17T19:23:02.567Z,13.05
2023-05-17T19:26:05.341Z,12.97
2023-05-17T19:29:08.080Z,12.95
2023-05-17T19:32:10.751Z,12.89
2023-05-17T19:35:13.687Z,12.87
2023-05-17T19:38:16.160Z,12.80
2023-05-17T19:41:19.023Z,12.76
2023-05-17T19:44:22.632Z,12.75
2023-05-17T19:47:25.412Z,12.67
2023-05-17T19:50:28.514Z,12.65
2023-05-17T19:53:40.375Z,12.64
2023-05-17T19:56:50.915Z,12.63
2023-05-17T19:59:53.522Z,12.55
2023-05-17T20:02:57.378Z,12.51
2023-05-17T20:06:00.467Z,12.47
2023-05-17T20:09:04.310Z,12.46
2023-05-17T20:12:07.468Z,12.47
2023-05-17T20:15:10.959Z,12.40
2023-05-17T20:18:13.619Z,12.40
2023-05-17T20:21:19.667Z,12.38
2023-05-17T20:24:24.823Z,12.29
2023-05-17T20:27:27.786Z,12.26
2023-05-17T20:30:31.035Z,12.37
2023-05-17T20:33:33.670Z,12.31
2023-05-17T20:36:36.336Z,12.30
2023-05-17T20:39:38.819Z,12.25
2023-05-17T20:42:42.753Z,12.30
2023-05-17T20:45:45.961Z,12.18
2023-05-17T20:48:49.840Z,12.15
2023-05-17T20:51:52.676Z,12.11
2023-05-17T20:54:55.189Z,12.01
2023-05-17T20:57:57.807Z,11.95
2023-05-17T21:01:01.314Z,11.91
2023-05-17T21:04:03.934Z,11.91
2023-05-17T21:07:10.561Z,11.90
2023-05-17T21:10:13.362Z,11.94
2023-05-17T21:13:16.024Z,11.97
2023-05-17T21:16:19.069Z,12.00
2023-05-17T21:19:21.815Z,11.99
2023-05-17T21:22:24.647Z,12.02
2023-05-17T21:25:27.291Z,12.00
2023-05-17T21:28:30.084Z,12.06
2023-05-17T21:31:32.859Z,12.08
2023-05-17T21:34:35.560Z,12.08
2023-05-17T21:37:40.080Z,12.01
2023-05-17T21:40:42.791Z,12.01
2023-05-17T21:43:45.458Z,12.02
2023-05-17T21:46:48.064Z,12.03
2023-05-17T21:49:50.586Z,12.03
2023-05-17T21:52:53.257Z,12.01
2023-05-17T21:56:01.989Z,12.01
2023-05-17T21:59:05.565Z,11.99
2023-05-17T22:02:08.792Z,11.99
2023-05-17T22:05:11.895Z,11.97
2023-05-17T22:08:14.451Z,12.01
2023-05-17T22:11:18.307Z,11.96
2023-05-17T22:14:20.744Z,11.92
2023-05-17T22:17:32.354Z,11.94
2023-05-17T22:20:41.747Z,11.96
2023-05-17T22:23:44.558Z,11.97
2023-05-17T22:26:47.174Z,11.94
2023-05-17T22:29:49.846Z,11.91
2023-05-17T22:32:54.771Z,11.89
2023-05-17T22:35:57.438Z,11.88
2023-05-17T22:39:00.228Z,11.83
2023-05-17T22:42:02.802Z,11.83
2023-05-17T22:45:05.774Z,11.91
2023-05-17T22:48:08.542Z,11.87
2023-05-17T22:51:12.749Z,11.92
2023-05-17T22:54:15.563Z,11.87
2023-05-17T22:57:18.024Z,11.90
2023-05-17T23:00:20.660Z,11.87
2023-05-17T23:03:23.120Z,11.83
2023-05-17T23:06:26.191Z,11.83
2023-05-17T23:09:33.533Z,11.79
2023-05-17T23:12:37.377Z,11.82
2023-05-17T23:15:40.614Z,11.82
2023-05-17T23:18:44.532Z,11.80
2023-05-17T23:21:47.268Z,11.74
2023-05-17T23:24:50.114Z,11.81
2023-05-17T23:27:52.559Z,11.74
2023-05-17T23:30:55.164Z,11.73
2023-05-17T23:33:57.809Z,11.69
2023-05-17T23:37:00.283Z,11.69
2023-05-17T23:40:06.898Z,11.67
2023-05-17T23:43:10.381Z,11.71
2023-05-17T23:46:13.811Z,11.69
2023-05-17T23:49:16.830Z,11.73
2023-05-17T23:52:19.449Z,11.67
2023-05-17T23:55:22.675Z,11.67
2023-05-17T23:58:25.137Z,11.65
